sensor_id;sensor_type;location;lat;lon;timestamp;pressure;altitude;pressure_sealevel;temperature;humidity
48606;BME280;8482;54.396;18.590;2023-02-19T00:01:33;100645.31;;;4.56;70.25
48606;BME280;8482;54.396;18.590;2023-02-19T00:04:03;100637.44;;;4.56;69.95
48606;BME280;8482;54.396;18.590;2023-02-19T00:06:32;100635.22;;;4.48;69.97
48606;BME280;8482;54.396;18.590;2023-02-19T00:08:59;100626.16;;;4.54;70.26
48606;BME280;8482;54.396;18.590;2023-02-19T00:11:29;100637.59;;;4.53;70.66
48606;BME280;8482;54.396;18.590;2023-02-19T00:13:57;100650.72;;;4.53;70.41
48606;BME280;8482;54.396;18.590;2023-02-19T00:16:28;100649.03;;;4.52;70.46
48606;BME280;8482;54.396;18.590;2023-02-19T00:18:56;100649.91;;;4.52;70.42
48606;BME280;8482;54.396;18.590;2023-02-19T00:21:24;100655.22;;;4.51;70.52
48606;BME280;8482;54.396;18.590;2023-02-19T00:24:00;100650.06;;;4.49;69.82
48606;BME280;8482;54.396;18.590;2023-02-19T00:26:27;100664.91;;;4.50;70.97
48606;BME280;8482;54.396;18.590;2023-02-19T00:28:55;100651.75;;;4.50;70.81
48606;BME280;8482;54.396;18.590;2023-02-19T00:31:29;100648.38;;;4.48;70.45
48606;BME280;8482;54.396;18.590;2023-02-19T00:33:59;100655.41;;;4.48;70.21
48606;BME280;8482;54.396;18.590;2023-02-19T00:36:26;100641.66;;;4.42;70.08
48606;BME280;8482;54.396;18.590;2023-02-19T00:38:53;100643.47;;;4.42;70.10
48606;BME280;8482;54.396;18.590;2023-02-19T00:41:22;100648.94;;;4.37;70.00
48606;BME280;8482;54.396;18.590;2023-02-19T00:43:56;100655.84;;;4.40;70.48
48606;BME280;8482;54.396;18.590;2023-02-19T00:46:29;100651.41;;;4.40;70.51
48606;BME280;8482;54.396;18.590;2023-02-19T00:48:57;100659.28;;;4.40;70.77
48606;BME280;8482;54.396;18.590;2023-02-19T00:51:29;100646.50;;;4.34;70.37
48606;BME280;8482;54.396;18.590;2023-02-19T00:53:57;100661.84;;;4.42;70.38
48606;BME280;8482;54.396;18.590;2023-02-19T00:56:23;100666.19;;;4.43;70.46
48606;BME280;8482;54.396;18.590;2023-02-19T00:58:49;100675.72;;;4.44;70.70
48606;BME280;8482;54.396;18.590;2023-02-19T01:01:16;100674.88;;;4.43;70.01
48606;BME280;8482;54.396;18.590;2023-02-19T01:03:42;100668.97;;;4.40;70.50
48606;BME280;8482;54.396;18.590;2023-02-19T01:06:10;100678.53;;;4.41;69.76
48606;BME280;8482;54.396;18.590;2023-02-19T01:08:38;100675.81;;;4.42;70.11
48606;BME280;8482;54.396;18.590;2023-02-19T01:11:05;100664.47;;;4.42;70.13
48606;BME280;8482;54.396;18.590;2023-02-19T01:13:32;100647.34;;;4.35;70.05
48606;BME280;8482;54.396;18.590;2023-02-19T01:16:16;100667.09;;;4.42;70.29
48606;BME280;8482;54.396;18.590;2023-02-19T01:18:43;100653.09;;;4.41;70.75
48606;BME280;8482;54.396;18.590;2023-02-19T01:21:18;100649.56;;;4.42;70.56
48606;BME280;8482;54.396;18.590;2023-02-19T01:23:45;100650.47;;;4.41;70.17
48606;BME280;8482;54.396;18.590;2023-02-19T01:26:18;100650.41;;;4.43;70.53
48606;BME280;8482;54.396;18.590;2023-02-19T01:28:45;100654.72;;;4.44;70.30
48606;BME280;8482;54.396;18.590;2023-02-19T01:31:19;100660.66;;;4.48;70.42
48606;BME280;8482;54.396;18.590;2023-02-19T01:33:52;100658.97;;;4.47;69.89
48606;BME280;8482;54.396;18.590;2023-02-19T01:36:19;100669.31;;;4.50;70.29
48606;BME280;8482;54.396;18.590;2023-02-19T01:38:46;100674.47;;;4.51;69.89
48606;BME280;8482;54.396;18.590;2023-02-19T01:41:16;100671.84;;;4.51;69.83
48606;BME280;8482;54.396;18.590;2023-02-19T01:46:39;100665.81;;;4.49;69.59
48606;BME280;8482;54.396;18.590;2023-02-19T01:49:15;100665.72;;;4.51;69.66
48606;BME280;8482;54.396;18.590;2023-02-19T01:51:54;100661.34;;;4.51;69.51
48606;BME280;8482;54.396;18.590;2023-02-19T01:54:25;100671.84;;;4.51;69.44
48606;BME280;8482;54.396;18.590;2023-02-19T01:56:53;100664.78;;;4.52;69.59
48606;BME280;8482;54.396;18.590;2023-02-19T01:59:20;100662.16;;;4.52;69.32
48606;BME280;8482;54.396;18.590;2023-02-19T02:01:47;100657.00;;;4.50;69.53
48606;BME280;8482;54.396;18.590;2023-02-19T02:04:16;100653.34;;;4.53;69.94
48606;BME280;8482;54.396;18.590;2023-02-19T02:06:53;100655.16;;;4.52;69.02
48606;BME280;8482;54.396;18.590;2023-02-19T02:09:27;100663.97;;;4.51;69.34
48606;BME280;8482;54.396;18.590;2023-02-19T02:12:12;100650.84;;;4.51;69.97
48606;BME280;8482;54.396;18.590;2023-02-19T02:14:43;100659.47;;;4.53;69.99
48606;BME280;8482;54.396;18.590;2023-02-19T02:17:29;100653.19;;;4.56;69.41
48606;BME280;8482;54.396;18.590;2023-02-19T02:22:59;100651.34;;;4.58;69.33
48606;BME280;8482;54.396;18.590;2023-02-19T02:31:21;100651.84;;;4.49;69.50
48606;BME280;8482;54.396;18.590;2023-02-19T02:34:13;100660.25;;;4.55;69.53
48606;BME280;8482;54.396;18.590;2023-02-19T02:36:49;100649.75;;;4.55;69.50
48606;BME280;8482;54.396;18.590;2023-02-19T02:39:21;100645.41;;;4.54;69.84
48606;BME280;8482;54.396;18.590;2023-02-19T02:41:55;100632.59;;;4.48;69.94
48606;BME280;8482;54.396;18.590;2023-02-19T02:44:41;100630.91;;;4.47;69.46
48606;BME280;8482;54.396;18.590;2023-02-19T02:47:30;100635.16;;;4.50;69.71
48606;BME280;8482;54.396;18.590;2023-02-19T02:57:23;100626.16;;;4.38;70.02
48606;BME280;8482;54.396;18.590;2023-02-19T03:00:01;100623.72;;;4.35;70.03
48606;BME280;8482;54.396;18.590;2023-02-19T03:02:31;100630.50;;;4.39;70.13
48606;BME280;8482;54.396;18.590;2023-02-19T03:05:11;100628.19;;;4.33;70.79
48606;BME280;8482;54.396;18.590;2023-02-19T03:08:33;100642.09;;;4.35;69.92
48606;BME280;8482;54.396;18.590;2023-02-19T03:11:05;100654.97;;;4.39;70.22
48606;BME280;8482;54.396;18.590;2023-02-19T03:14:22;100652.53;;;4.36;69.94
48606;BME280;8482;54.396;18.590;2023-02-19T03:17:28;100657.78;;;4.36;70.47
48606;BME280;8482;54.396;18.590;2023-02-19T03:20:22;100650.91;;;4.34;70.45
48606;BME280;8482;54.396;18.590;2023-02-19T03:22:51;100642.59;;;4.25;70.62
48606;BME280;8482;54.396;18.590;2023-02-19T03:25:27;100651.31;;;4.26;70.91
48606;BME280;8482;54.396;18.590;2023-02-19T03:28:18;100658.19;;;4.28;70.52
48606;BME280;8482;54.396;18.590;2023-02-19T03:31:14;100654.81;;;4.26;69.97
48606;BME280;8482;54.396;18.590;2023-02-19T03:33:44;100659.38;;;4.23;70.67
48606;BME280;8482;54.396;18.590;2023-02-19T03:36:16;100651.50;;;4.23;70.68
48606;BME280;8482;54.396;18.590;2023-02-19T03:39:06;100658.50;;;4.22;70.64
48606;BME280;8482;54.396;18.590;2023-02-19T03:42:34;100655.06;;;4.22;70.74
48606;BME280;8482;54.396;18.590;2023-02-19T03:50:54;100650.03;;;4.17;70.78
48606;BME280;8482;54.396;18.590;2023-02-19T03:56:33;100661.53;;;4.14;71.48
48606;BME280;8482;54.396;18.590;2023-02-19T03:59:12;100670.44;;;4.12;71.73
48606;BME280;8482;54.396;18.590;2023-02-19T04:01:49;100665.25;;;4.10;71.59
48606;BME280;8482;54.396;18.590;2023-02-19T04:04:40;100675.94;;;4.07;71.51
48606;BME280;8482;54.396;18.590;2023-02-19T04:07:09;100665.44;;;4.07;71.19
48606;BME280;8482;54.396;18.590;2023-02-19T04:09:40;100663.06;;;4.03;71.40
48606;BME280;8482;54.396;18.590;2023-02-19T04:12:09;100669.25;;;4.02;72.22
48606;BME280;8482;54.396;18.590;2023-02-19T04:14:58;100662.34;;;3.99;72.77
48606;BME280;8482;54.396;18.590;2023-02-19T04:17:45;100662.34;;;3.99;71.99
48606;BME280;8482;54.396;18.590;2023-02-19T04:20:14;100661.53;;;3.98;72.38
48606;BME280;8482;54.396;18.590;2023-02-19T04:22:41;100668.47;;;3.99;72.84
48606;BME280;8482;54.396;18.590;2023-02-19T04:25:08;100657.09;;;3.99;72.36
48606;BME280;8482;54.396;18.590;2023-02-19T04:27:38;100657.97;;;3.99;72.61
48606;BME280;8482;54.396;18.590;2023-02-19T04:30:07;100653.66;;;3.98;72.72
48606;BME280;8482;54.396;18.590;2023-02-19T04:32:33;100655.41;;;3.98;72.50
48606;BME280;8482;54.396;18.590;2023-02-19T04:34:59;100654.56;;;3.97;72.46
48606;BME280;8482;54.396;18.590;2023-02-19T04:37:25;100658.81;;;4.00;72.30
48606;BME280;8482;54.396;18.590;2023-02-19T04:39:51;100650.16;;;3.98;72.80
48606;BME280;8482;54.396;18.590;2023-02-19T04:42:17;100648.31;;;4.00;72.78
48606;BME280;8482;54.396;18.590;2023-02-19T04:44:43;100645.78;;;3.98;72.29
48606;BME280;8482;54.396;18.590;2023-02-19T04:47:08;100656.13;;;4.02;72.55
48606;BME280;8482;54.396;18.590;2023-02-19T04:49:34;100639.66;;;3.98;72.21
48606;BME280;8482;54.396;18.590;2023-02-19T04:52:00;100640.53;;;3.98;72.41
48606;BME280;8482;54.396;18.590;2023-02-19T04:54:26;100640.63;;;3.97;72.61
48606;BME280;8482;54.396;18.590;2023-02-19T04:56:52;100652.78;;;3.98;72.80
48606;BME280;8482;54.396;18.590;2023-02-19T04:59:17;100640.78;;;3.94;71.92
48606;BME280;8482;54.396;18.590;2023-02-19T05:01:43;100649.47;;;3.94;72.39
48606;BME280;8482;54.396;18.590;2023-02-19T05:04:09;100645.25;;;3.92;72.76
48606;BME280;8482;54.396;18.590;2023-02-19T05:06:35;100652.25;;;3.91;72.52
48606;BME280;8482;54.396;18.590;2023-02-19T05:09:01;100646.28;;;3.89;72.58
48606;BME280;8482;54.396;18.590;2023-02-19T05:11:27;100649.63;;;3.91;72.47
48606;BME280;8482;54.396;18.590;2023-02-19T05:13:54;100646.28;;;3.89;72.84
48606;BME280;8482;54.396;18.590;2023-02-19T05:16:20;100652.34;;;3.90;72.93
48606;BME280;8482;54.396;18.590;2023-02-19T05:18:46;100658.47;;;3.90;72.31
48606;BME280;8482;54.396;18.590;2023-02-19T05:21:13;100657.69;;;3.88;72.32
48606;BME280;8482;54.396;18.590;2023-02-19T05:23:40;100649.97;;;3.85;72.85
48606;BME280;8482;54.396;18.590;2023-02-19T05:26:18;100643.81;;;3.86;72.69
48606;BME280;8482;54.396;18.590;2023-02-19T05:28:48;100649.09;;;3.84;72.80
48606;BME280;8482;54.396;18.590;2023-02-19T05:31:15;100652.69;;;3.83;72.99
48606;BME280;8482;54.396;18.590;2023-02-19T05:33:41;100659.59;;;3.84;72.73
48606;BME280;8482;54.396;18.590;2023-02-19T05:36:11;100666.56;;;3.86;73.06
48606;BME280;8482;54.396;18.590;2023-02-19T05:38:39;100664.69;;;3.88;73.23
48606;BME280;8482;54.396;18.590;2023-02-19T05:41:17;100659.38;;;3.89;72.80
48606;BME280;8482;54.396;18.590;2023-02-19T05:43:45;100656.75;;;3.89;73.36
48606;BME280;8482;54.396;18.590;2023-02-19T05:46:14;100668.00;;;3.91;73.05
48606;BME280;8482;54.396;18.590;2023-02-19T05:48:41;100669.69;;;3.92;73.32
48606;BME280;8482;54.396;18.590;2023-02-19T05:51:11;100679.28;;;3.93;73.06
48606;BME280;8482;54.396;18.590;2023-02-19T05:53:38;100666.16;;;3.93;72.77
48606;BME280;8482;54.396;18.590;2023-02-19T05:58:46;100683.44;;;3.97;73.54
48606;BME280;8482;54.396;18.590;2023-02-19T06:01:22;100668.53;;;3.98;73.05
48606;BME280;8482;54.396;18.590;2023-02-19T06:03:48;100663.47;;;3.95;73.44
48606;BME280;8482;54.396;18.590;2023-02-19T06:06:17;100668.47;;;3.99;73.05
48606;BME280;8482;54.396;18.590;2023-02-19T06:08:44;100671.09;;;3.99;73.47
48606;BME280;8482;54.396;18.590;2023-02-19T06:11:10;100671.00;;;4.01;73.76
48606;BME280;8482;54.396;18.590;2023-02-19T06:13:36;100681.44;;;4.03;73.66
48606;BME280;8482;54.396;18.590;2023-02-19T06:16:07;100674.50;;;4.02;73.17
48606;BME280;8482;54.396;18.590;2023-02-19T06:18:33;100683.03;;;4.05;73.09
48606;BME280;8482;54.396;18.590;2023-02-19T06:21:04;100688.19;;;4.07;73.27
48606;BME280;8482;54.396;18.590;2023-02-19T06:23:31;100688.88;;;4.10;73.28
48606;BME280;8482;54.396;18.590;2023-02-19T06:26:13;100691.50;;;4.10;73.41
48606;BME280;8482;54.396;18.590;2023-02-19T06:28:41;100697.53;;;4.12;73.05
48606;BME280;8482;54.396;18.590;2023-02-19T06:31:09;100708.03;;;4.12;73.86
48606;BME280;8482;54.396;18.590;2023-02-19T06:33:35;100711.38;;;4.16;73.35
48606;BME280;8482;54.396;18.590;2023-02-19T06:36:03;100703.50;;;4.16;73.46
48606;BME280;8482;54.396;18.590;2023-02-19T06:38:30;100705.09;;;4.19;73.17
48606;BME280;8482;54.396;18.590;2023-02-19T06:41:04;100721.69;;;4.19;73.54
48606;BME280;8482;54.396;18.590;2023-02-19T06:43:32;100713.66;;;4.22;74.13
48606;BME280;8482;54.396;18.590;2023-02-19T06:46:00;100704.00;;;4.23;73.57
48606;BME280;8482;54.396;18.590;2023-02-19T06:48:28;100716.03;;;4.27;73.50
48606;BME280;8482;54.396;18.590;2023-02-19T06:50:54;100721.22;;;4.28;73.82
48606;BME280;8482;54.396;18.590;2023-02-19T06:53:21;100731.53;;;4.32;73.98
48606;BME280;8482;54.396;18.590;2023-02-19T06:56:20;100734.25;;;4.30;73.25
48606;BME280;8482;54.396;18.590;2023-02-19T06:58:44;100745.59;;;4.30;73.74
48606;BME280;8482;54.396;18.590;2023-02-19T07:01:10;100743.84;;;4.31;73.68
48606;BME280;8482;54.396;18.590;2023-02-19T07:03:36;100749.00;;;4.33;73.66
48606;BME280;8482;54.396;18.590;2023-02-19T07:06:02;100744.66;;;4.32;72.85
48606;BME280;8482;54.396;18.590;2023-02-19T07:08:28;100752.38;;;4.35;73.26
48606;BME280;8482;54.396;18.590;2023-02-19T07:10:56;100748.94;;;4.34;72.92
48606;BME280;8482;54.396;18.590;2023-02-19T07:13:26;100754.25;;;4.33;73.19
48606;BME280;8482;54.396;18.590;2023-02-19T07:16:07;100761.19;;;4.34;73.15
48606;BME280;8482;54.396;18.590;2023-02-19T07:18:34;100762.13;;;4.33;73.46
48606;BME280;8482;54.396;18.590;2023-02-19T07:21:05;100762.13;;;4.33;72.53
48606;BME280;8482;54.396;18.590;2023-02-19T07:23:31;100759.59;;;4.31;72.32
48606;BME280;8482;54.396;18.590;2023-02-19T07:25:57;100755.94;;;4.34;71.94
48606;BME280;8482;54.396;18.590;2023-02-19T07:28:23;100758.56;;;4.34;72.20
48606;BME280;8482;54.396;18.590;2023-02-19T07:30:49;100765.53;;;4.35;71.99
48606;BME280;8482;54.396;18.590;2023-02-19T07:33:15;100768.09;;;4.36;72.17
48606;BME280;8482;54.396;18.590;2023-02-19T07:35:49;100774.94;;;4.39;71.93
48606;BME280;8482;54.396;18.590;2023-02-19T07:38:17;100772.31;;;4.39;71.88
48606;BME280;8482;54.396;18.590;2023-02-19T07:40:57;100774.09;;;4.38;71.90
48606;BME280;8482;54.396;18.590;2023-02-19T07:43:27;100771.53;;;4.37;72.00
48606;BME280;8482;54.396;18.590;2023-02-19T07:45:53;100778.41;;;4.39;71.84
48606;BME280;8482;54.396;18.590;2023-02-19T07:48:20;100781.91;;;4.40;71.08
48606;BME280;8482;54.396;18.590;2023-02-19T07:50:57;100781.81;;;4.41;71.50
48606;BME280;8482;54.396;18.590;2023-02-19T07:53:25;100783.50;;;4.42;71.18
48606;BME280;8482;54.396;18.590;2023-02-19T07:55:51;100796.53;;;4.44;71.37
48606;BME280;8482;54.396;18.590;2023-02-19T07:58:18;100792.06;;;4.46;71.20
48606;BME280;8482;54.396;18.590;2023-02-19T08:00:44;100796.41;;;4.47;70.83
48606;BME280;8482;54.396;18.590;2023-02-19T08:03:10;100796.25;;;4.50;70.56
48606;BME280;8482;54.396;18.590;2023-02-19T08:05:39;100804.13;;;4.50;70.43
48606;BME280;8482;54.396;18.590;2023-02-19T08:08:11;100811.91;;;4.52;70.28
48606;BME280;8482;54.396;18.590;2023-02-19T08:10:37;100805.72;;;4.53;70.15
48606;BME280;8482;54.396;18.590;2023-02-19T08:13:22;100817.09;;;4.53;69.86
48606;BME280;8482;54.396;18.590;2023-02-19T08:16:11;100835.41;;;4.55;69.37
48606;BME280;8482;54.396;18.590;2023-02-19T08:18:40;100820.66;;;4.52;68.84
48606;BME280;8482;54.396;18.590;2023-02-19T08:21:06;100825.75;;;4.55;69.37
48606;BME280;8482;54.396;18.590;2023-02-19T08:23:32;100834.47;;;4.56;69.00
48606;BME280;8482;54.396;18.590;2023-02-19T08:26:00;100841.34;;;4.58;68.96
48606;BME280;8482;54.396;18.590;2023-02-19T08:28:27;100846.53;;;4.60;69.07
48606;BME280;8482;54.396;18.590;2023-02-19T08:31:02;100847.22;;;4.64;68.60
48606;BME280;8482;54.396;18.590;2023-02-19T08:33:29;100849.84;;;4.64;68.78
48606;BME280;8482;54.396;18.590;2023-02-19T08:35:56;100852.31;;;4.67;68.20
48606;BME280;8482;54.396;18.590;2023-02-19T08:38:25;100847.06;;;4.67;68.12
48606;BME280;8482;54.396;18.590;2023-02-19T08:40:51;100853.09;;;4.69;68.33
48606;BME280;8482;54.396;18.590;2023-02-19T08:43:17;100858.94;;;4.74;67.86
48606;BME280;8482;54.396;18.590;2023-02-19T08:45:44;100869.28;;;4.77;67.63
48606;BME280;8482;54.396;18.590;2023-02-19T08:48:12;100868.25;;;4.80;67.18
48606;BME280;8482;54.396;18.590;2023-02-19T08:50:39;100867.19;;;4.84;67.67
48606;BME280;8482;54.396;18.590;2023-02-19T08:53:06;100878.38;;;4.87;66.80
48606;BME280;8482;54.396;18.590;2023-02-19T08:55:32;100869.47;;;4.90;67.12
48606;BME280;8482;54.396;18.590;2023-02-19T08:57:58;100881.63;;;4.93;66.63
48606;BME280;8482;54.396;18.590;2023-02-19T09:00:24;100879.66;;;4.96;66.40
48606;BME280;8482;54.396;18.590;2023-02-19T09:02:51;100882.97;;;5.00;66.35
48606;BME280;8482;54.396;18.590;2023-02-19T09:05:17;100880.19;;;5.03;65.57
48606;BME280;8482;54.396;18.590;2023-02-19T09:07:43;100889.69;;;5.05;64.93
48606;BME280;8482;54.396;18.590;2023-02-19T09:10:12;100891.31;;;5.08;64.30
48606;BME280;8482;54.396;18.590;2023-02-19T09:12:38;100889.38;;;5.12;64.22
48606;BME280;8482;54.396;18.590;2023-02-19T09:15:06;100881.22;;;5.16;64.72
48606;BME280;8482;54.396;18.590;2023-02-19T09:17:32;100885.31;;;5.22;64.33
48606;BME280;8482;54.396;18.590;2023-02-19T09:19:57;100885.81;;;5.29;63.64
48606;BME280;8482;54.396;18.590;2023-02-19T09:22:23;100882.94;;;5.33;63.35
48606;BME280;8482;54.396;18.590;2023-02-19T09:24:49;100896.69;;;5.39;62.99
48606;BME280;8482;54.396;18.590;2023-02-19T09:27:17;100889.38;;;5.44;63.01
48606;BME280;8482;54.396;18.590;2023-02-19T09:29:44;100875.81;;;5.51;62.20
48606;BME280;8482;54.396;18.590;2023-02-19T09:32:10;100881.66;;;5.57;61.98
48606;BME280;8482;54.396;18.590;2023-02-19T09:34:36;100890.16;;;5.62;60.74
48606;BME280;8482;54.396;18.590;2023-02-19T09:37:07;100894.41;;;5.64;59.54
48606;BME280;8482;54.396;18.590;2023-02-19T09:39:34;100893.47;;;5.65;59.09
48606;BME280;8482;54.396;18.590;2023-02-19T09:42:18;100897.88;;;5.65;57.90
48606;BME280;8482;54.396;18.590;2023-02-19T09:44:49;100890.84;;;5.65;58.30
48606;BME280;8482;54.396;18.590;2023-02-19T09:47:28;100890.91;;;5.64;57.69
48606;BME280;8482;54.396;18.590;2023-02-19T09:50:05;100899.31;;;5.71;57.23
48606;BME280;8482;54.396;18.590;2023-02-19T09:52:46;100903.38;;;5.76;57.67
48606;BME280;8482;54.396;18.590;2023-02-19T09:55:18;100897.00;;;5.80;57.49
48606;BME280;8482;54.396;18.590;2023-02-19T09:57:47;100909.56;;;5.91;57.00
48606;BME280;8482;54.396;18.590;2023-02-19T10:00:26;100913.50;;;6.00;57.35
48606;BME280;8482;54.396;18.590;2023-02-19T10:03:05;100911.28;;;6.08;55.58
48606;BME280;8482;54.396;18.590;2023-02-19T10:05:37;100902.25;;;6.12;54.91
48606;BME280;8482;54.396;18.590;2023-02-19T10:08:08;100917.88;;;6.16;54.85
48606;BME280;8482;54.396;18.590;2023-02-19T10:10:37;100927.41;;;6.18;54.40
48606;BME280;8482;54.396;18.590;2023-02-19T10:13:20;100922.03;;;6.20;54.01
48606;BME280;8482;54.396;18.590;2023-02-19T10:15:53;100923.84;;;6.19;53.34
48606;BME280;8482;54.396;18.590;2023-02-19T10:18:38;100917.63;;;6.20;53.40
48606;BME280;8482;54.396;18.590;2023-02-19T10:21:07;100920.00;;;6.25;53.13
48606;BME280;8482;54.396;18.590;2023-02-19T10:23:34;100919.06;;;6.26;52.31
48606;BME280;8482;54.396;18.590;2023-02-19T10:26:00;100930.25;;;6.29;52.05
48606;BME280;8482;54.396;18.590;2023-02-19T10:28:30;100918.50;;;6.35;51.61
48606;BME280;8482;54.396;18.590;2023-02-19T10:31:01;100932.84;;;6.46;50.65
48606;BME280;8482;54.396;18.590;2023-02-19T10:33:28;100926.06;;;6.56;50.29
48606;BME280;8482;54.396;18.590;2023-02-19T10:36:24;100920.34;;;6.64;49.79
48606;BME280;8482;54.396;18.590;2023-02-19T10:38:52;100929.69;;;6.69;49.42
48606;BME280;8482;54.396;18.590;2023-02-19T10:41:22;100932.06;;;6.74;49.13
48606;BME280;8482;54.396;18.590;2023-02-19T10:44:03;100935.19;;;6.81;49.16
48606;BME280;8482;54.396;18.590;2023-02-19T10:46:41;100950.63;;;6.87;49.43
48606;BME280;8482;54.396;18.590;2023-02-19T10:49:29;100944.28;;;6.89;48.61
48606;BME280;8482;54.396;18.590;2023-02-19T10:52:10;100947.88;;;6.88;48.71
48606;BME280;8482;54.396;18.590;2023-02-19T10:54:49;100954.94;;;6.88;48.15
48606;BME280;8482;54.396;18.590;2023-02-19T11:02:42;100967.66;;;6.81;47.03
48606;BME280;8482;54.396;18.590;2023-02-19T11:07:42;100961.56;;;6.81;46.61
48606;BME280;8482;54.396;18.590;2023-02-19T11:10:37;100968.50;;;6.82;45.91
48606;BME280;8482;54.396;18.590;2023-02-19T11:13:06;100959.47;;;6.86;45.50
48606;BME280;8482;54.396;18.590;2023-02-19T11:15:39;100969.66;;;6.92;45.88
48606;BME280;8482;54.396;18.590;2023-02-19T11:20:58;100969.00;;;7.03;43.53
48606;BME280;8482;54.396;18.590;2023-02-19T11:26:02;100974.56;;;7.13;42.43
48606;BME280;8482;54.396;18.590;2023-02-19T11:28:40;100982.66;;;7.10;42.07
48606;BME280;8482;54.396;18.590;2023-02-19T11:31:23;100990.66;;;7.08;42.78
48606;BME280;8482;54.396;18.590;2023-02-19T11:34:26;101000.56;;;7.04;43.33
48606;BME280;8482;54.396;18.590;2023-02-19T11:37:14;101002.63;;;6.99;43.13
48606;BME280;8482;54.396;18.590;2023-02-19T11:39:44;100990.38;;;6.98;43.19
48606;BME280;8482;54.396;18.590;2023-02-19T11:45:37;100988.69;;;7.12;43.79
48606;BME280;8482;54.396;18.590;2023-02-19T11:48:38;100998.78;;;7.19;43.40
48606;BME280;8482;54.396;18.590;2023-02-19T11:51:34;101004.94;;;7.20;42.79
48606;BME280;8482;54.396;18.590;2023-02-19T11:54:51;100997.94;;;7.19;43.55
48606;BME280;8482;54.396;18.590;2023-02-19T11:57:47;101005.00;;;7.18;43.77
48606;BME280;8482;54.396;18.590;2023-02-19T12:00:26;101004.06;;;7.19;43.35
48606;BME280;8482;54.396;18.590;2023-02-19T12:12:18;101019.44;;;7.42;43.12
48606;BME280;8482;54.396;18.590;2023-02-19T12:20:56;101034.13;;;7.31;43.41
48606;BME280;8482;54.396;18.590;2023-02-19T12:30:26;101048.28;;;7.59;43.76
48606;BME280;8482;54.396;18.590;2023-02-19T12:33:26;101056.41;;;7.56;43.31
48606;BME280;8482;54.396;18.590;2023-02-19T12:36:06;101059.50;;;7.48;42.82
48606;BME280;8482;54.396;18.590;2023-02-19T12:39:22;101060.16;;;7.38;42.08
48606;BME280;8482;54.396;18.590;2023-02-19T12:45:02;101069.25;;;7.17;41.91
48606;BME280;8482;54.396;18.590;2023-02-19T12:47:37;101075.28;;;7.19;42.20
48606;BME280;8482;54.396;18.590;2023-02-19T12:50:15;101085.22;;;7.30;41.87
48606;BME280;8482;54.396;18.590;2023-02-19T12:52:49;101066.56;;;7.48;41.60
48606;BME280;8482;54.396;18.590;2023-02-19T12:55:25;101068.09;;;7.66;41.37
48606;BME280;8482;54.396;18.590;2023-02-19T12:57:54;101059.56;;;7.90;40.94
48606;BME280;8482;54.396;18.590;2023-02-19T13:00:30;101066.69;;;8.17;40.36
48606;BME280;8482;54.396;18.590;2023-02-19T13:03:13;101059.47;;;8.34;39.18
48606;BME280;8482;54.396;18.590;2023-02-19T13:06:10;101070.13;;;8.47;37.46
48606;BME280;8482;54.396;18.590;2023-02-19T13:08:51;101061.69;;;8.54;36.56
48606;BME280;8482;54.396;18.590;2023-02-19T13:11:28;101066.41;;;8.64;36.10
48606;BME280;8482;54.396;18.590;2023-02-19T13:17:31;101073.22;;;8.94;34.92
48606;BME280;8482;54.396;18.590;2023-02-19T13:20:30;101079.31;;;9.09;33.97
48606;BME280;8482;54.396;18.590;2023-02-19T13:23:22;101072.88;;;9.26;33.49
48606;BME280;8482;54.396;18.590;2023-02-19T13:38:44;101099.13;;;10.31;32.02
48606;BME280;8482;54.396;18.590;2023-02-19T13:41:31;101097.81;;;10.73;31.33
48606;BME280;8482;54.396;18.590;2023-02-19T13:44:06;101093.50;;;11.08;31.03
48606;BME280;8482;54.396;18.590;2023-02-19T13:46:44;101109.25;;;11.45;30.24
48606;BME280;8482;54.396;18.590;2023-02-19T14:01:09;101119.06;;;13.76;26.84
48606;BME280;8482;54.396;18.590;2023-02-19T14:03:52;101111.16;;;14.05;26.68
48606;BME280;8482;54.396;18.590;2023-02-19T14:06:20;101122.75;;;14.25;26.70
48606;BME280;8482;54.396;18.590;2023-02-19T14:08:57;101138.06;;;14.43;26.26
48606;BME280;8482;54.396;18.590;2023-02-19T14:14:26;101143.50;;;14.22;25.31
48606;BME280;8482;54.396;18.590;2023-02-19T14:22:45;101154.41;;;14.60;24.37
48606;BME280;8482;54.396;18.590;2023-02-19T14:30:26;101133.84;;;15.68;23.34
48606;BME280;8482;54.396;18.590;2023-02-19T14:32:53;101141.94;;;15.96;23.46
48606;BME280;8482;54.396;18.590;2023-02-19T14:35:33;101150.34;;;16.01;23.55
48606;BME280;8482;54.396;18.590;2023-02-19T14:38:02;101159.84;;;16.23;23.52
48606;BME280;8482;54.396;18.590;2023-02-19T14:40:38;101151.75;;;16.61;23.36
48606;BME280;8482;54.396;18.590;2023-02-19T14:43:15;101155.69;;;17.03;23.15
48606;BME280;8482;54.396;18.590;2023-02-19T14:45:50;101158.72;;;17.26;22.46
48606;BME280;8482;54.396;18.590;2023-02-19T14:48:37;101167.91;;;16.88;21.98
48606;BME280;8482;54.396;18.590;2023-02-19T14:51:43;101177.25;;;15.52;23.66
48606;BME280;8482;54.396;18.590;2023-02-19T14:54:54;101179.53;;;14.06;25.54
48606;BME280;8482;54.396;18.590;2023-02-19T14:57:34;101189.50;;;12.76;27.07
48606;BME280;8482;54.396;18.590;2023-02-19T15:00:24;101196.75;;;11.71;28.34
48606;BME280;8482;54.396;18.590;2023-02-19T15:02:53;101193.94;;;10.90;29.63
48606;BME280;8482;54.396;18.590;2023-02-19T15:05:29;101214.44;;;10.25;31.27
48606;BME280;8482;54.396;18.590;2023-02-19T15:08:00;101209.34;;;9.70;32.46
48606;BME280;8482;54.396;18.590;2023-02-19T15:10:30;101212.34;;;9.25;33.44
48606;BME280;8482;54.396;18.590;2023-02-19T15:13:04;101225.28;;;8.88;34.29
48606;BME280;8482;54.396;18.590;2023-02-19T15:15:44;101231.31;;;8.48;34.72
48606;BME280;8482;54.396;18.590;2023-02-19T15:18:20;101231.47;;;8.16;35.24
48606;BME280;8482;54.396;18.590;2023-02-19T15:20:48;101229.84;;;7.85;35.84
48606;BME280;8482;54.396;18.590;2023-02-19T15:23:22;101228.16;;;7.53;36.74
48606;BME280;8482;54.396;18.590;2023-02-19T15:25:51;101226.97;;;7.28;37.07
48606;BME280;8482;54.396;18.590;2023-02-19T15:28:29;101242.38;;;7.04;37.82